Thursday, May 24, 2018, 1:48 PM EDT
Back to Local

KMSS, Massena International -richards Fld

Location: Massena, NY, United States Lat: 44.933
Local Time: 1:48 PM EDT (17:48 GMT) Lon: -74.85
Time Zone: US/Eastern Elev: 213 ft

Show me the last for .
Show Decoded

2018-05-24 12:53 METAR KMSS 241653Z AUTO VRB06KT 10SM CLR 21/01 A3014 RMK AO2 SLP207 T02060006 =
2018-05-24 11:53 METAR KMSS 241553Z AUTO VRB06KT 10SM CLR 19/01 A3016 RMK AO2 SLP215 T01940011 =
2018-05-24 10:53 METAR KMSS 241453Z AUTO 26004KT 10SM CLR 18/01 A3018 RMK AO2 SLP220 T01830006
                 58006 =
2018-05-24 09:53 METAR KMSS 241353Z AUTO 00000KT 10SM CLR 17/01 A3019 RMK AO2 SLP225 T01720006 =
2018-05-24 08:53 METAR KMSS 241253Z AUTO 32003KT 10SM OVC100 13/04 A3020 RMK AO2 SLP229 T01330044
                 =
2018-05-24 07:53 METAR KMSS 241153Z AUTO 00000KT 10SM OVC100 11/07 A3020 RMK AO2 SLP226 T01060067
                 10106 20044 51024 =
2018-05-24 06:53 METAR KMSS 241053Z AUTO 00000KT 10SM OVC100 10/06 A3019 RMK AO2 SLP223 T01000056
                 =
2018-05-24 05:53 METAR KMSS 240953Z AUTO 00000KT 10SM OVC110 08/06 A3015 RMK AO2 SLP210 T00780061
                 =
2018-05-24 04:53 METAR KMSS 240853Z AUTO 00000KT 10SM FEW120 06/04 A3013 RMK AO2 SLP203 T00610044
                 53011 =
2018-05-24 03:53 METAR KMSS 240753Z AUTO 00000KT 10SM CLR 05/04 A3011 RMK AO2 SLP198 T00500039 =
2018-05-24 02:53 METAR KMSS 240653Z AUTO 00000KT 10SM FEW120 07/04 A3010 RMK AO2 SLP194 T00720044
                 =
2018-05-24 01:53 METAR KMSS 240553Z AUTO 21004KT 10SM CLR 07/05 A3009 RMK AO2 SLP191 T00720050
                 10206 20067 51013 =
2018-05-24 00:53 METAR KMSS 240453Z AUTO 00000KT 10SM CLR 09/04 A3009 RMK AO2 SLP190 T00890039
                 402440078 =
2018-05-23 23:53 METAR KMSS 240353Z AUTO 34004KT 10SM CLR 12/02 A3007 RMK AO2 SLP185 T01170022 =
2018-05-23 22:53 METAR KMSS 240253Z AUTO 33005KT 10SM CLR 12/03 A3005 RMK AO2 SLP178 T01170033
                 51022 =
2018-05-23 21:53 METAR KMSS 240153Z AUTO 00000KT 10SM CLR 11/06 A3004 RMK AO2 SLP173 T01110061 =
2018-05-23 20:53 METAR KMSS 240053Z AUTO 32004KT 10SM CLR 13/07 A3001 RMK AO2 SLP164 T01330072 =
2018-05-23 19:53 METAR KMSS 232353Z AUTO 32004KT 10SM CLR 21/M01 A2999 RMK AO2 SLP155 T02111006
                 10244 20206 53012 =
2018-05-23 18:53 METAR KMSS 232253Z AUTO 31007KT 10SM CLR 23/04 A2997 RMK AO2 SLP148 T02280044 =
2018-05-23 17:53 METAR KMSS 232153Z AUTO 28010G16KT 10SM FEW075 24/08 A2995 RMK AO2 SLP143
                 T02390083 =
2018-05-23 16:53 METAR KMSS 232053Z AUTO 29009KT 10SM SCT080 23/10 A2996 RMK AO2 SLP143 T02280100
                 55003 =
2018-05-23 15:53 METAR KMSS 231953Z AUTO 30012KT 10SM CLR 24/11 A2995 RMK AO2 SLP141 T02390106 =
2018-05-23 14:53 METAR KMSS 231853Z AUTO 30012KT 10SM FEW060 23/11 A2995 RMK AO2 SLP142 T02330111
                 =
2018-05-23 13:53 METAR KMSS 231753Z AUTO 27012G20KT 10SM CLR 23/12 A2996 RMK AO2 SLP146 T02280117
                 10228 20144 55000 =

Support USWX by starting your Amazon purchase here.